Time;durP1;ratioP1;P1;durP2;ratioP2;P2;SDS_P1;SDS_P2;PMS_P1;PMS_P2;Temp;Humidity;BMP_temperature;BMP_pressure;BME280_temperature;BME280_humidity;BME280_pressure;Samples;Min_cycle;Max_cycle;Signal;HPM_P1;HPM_P2
2022/07/25 00:00:27;;;;;;;8.00;7.30;;;26.60;60.70;;;;;;5047957;28;20466;-84
2022/07/25 00:02:54;;;;;;;8.23;7.43;;;26.60;61.00;;;;;;5027014;28;20461;-84
2022/07/25 00:05:21;;;;;;;7.53;6.73;;;26.80;61.90;;;;;;5030187;28;20452;-85
2022/07/25 00:07:49;;;;;;;7.53;6.97;;;26.80;61.20;;;;;;5025859;28;20483;-86
2022/07/25 00:10:16;;;;;;;6.90;6.40;;;26.90;61.60;;;;;;5026748;28;20489;-87
2022/07/25 00:12:43;;;;;;;7.57;6.87;;;26.80;61.50;;;;;;5026760;28;20481;-85
2022/07/25 00:15:12;;;;;;;7.77;7.07;;;26.90;62.10;;;;;;5022761;28;20454;-84
2022/07/25 00:17:39;;;;;;;7.77;7.07;;;26.90;62.20;;;;;;5031454;28;20501;-86
2022/07/25 00:20:07;;;;;;;7.00;6.30;;;26.80;62.20;;;;;;5045630;28;20581;-85
2022/07/25 00:22:34;;;;;;;8.40;7.70;;;26.60;61.90;;;;;;5027127;28;20572;-85
2022/07/25 00:25:01;;;;;;;6.90;6.40;;;26.40;62.30;;;;;;5044209;28;20449;-87
2022/07/25 00:27:29;;;;;;;7.60;6.83;;;26.10;62.50;;;;;;5031001;28;20444;-85
2022/07/25 00:29:59;;;;;;;7.43;6.83;;;25.90;63.20;;;;;;5029329;28;20476;-86
2022/07/25 00:32:26;;;;;;;7.23;6.53;;;25.80;64.10;;;;;;5055707;28;20476;-84
2022/07/25 00:34:52;;;;;;;8.17;7.47;;;25.80;65.20;;;;;;5048257;28;20456;-85
2022/07/25 00:37:21;;;;;;;8.03;7.33;;;25.70;64.90;;;;;;5061479;28;20449;-87
2022/07/25 00:39:48;;;;;;;7.57;6.70;;;25.70;64.40;;;;;;5072536;28;20476;-85
2022/07/25 00:42:14;;;;;;;7.83;7.13;;;25.80;64.50;;;;;;5044149;28;20450;-81
2022/07/25 00:44:42;;;;;;;8.47;7.67;;;25.80;64.40;;;;;;5067051;28;20483;-83
2022/07/25 00:47:09;;;;;;;7.53;6.93;;;25.60;64.90;;;;;;5031734;28;20454;-84
2022/07/25 00:49:36;;;;;;;11.00;7.47;;;25.70;64.90;;;;;;5064706;28;20473;-85
2022/07/25 00:52:04;;;;;;;8.50;7.67;;;25.80;64.50;;;;;;5061868;28;20472;-85
2022/07/25 00:54:32;;;;;;;8.53;7.57;;;25.70;64.70;;;;;;5030886;28;20485;-85
2022/07/25 00:56:58;;;;;;;7.23;6.53;;;25.70;65.30;;;;;;5033157;28;21203;-85
2022/07/25 00:59:25;;;;;;;7.77;7.17;;;25.50;65.30;;;;;;5032480;28;20480;-84
2022/07/25 01:01:53;;;;;;;7.57;6.77;;;25.40;65.90;;;;;;5051243;28;20449;-84
2022/07/25 01:04:19;;;;;;;7.60;7.00;;;25.40;66.10;;;;;;5056180;28;20461;-84
2022/07/25 01:06:46;;;;;;;8.37;7.57;;;25.30;66.40;;;;;;5051361;28;20468;-84
2022/07/25 01:09:15;;;;;;;7.80;7.00;;;25.20;66.50;;;;;;5033116;28;20488;-85
2022/07/25 01:11:42;;;;;;;8.50;7.80;;;25.30;66.10;;;;;;5046892;28;20464;-85
2022/07/25 01:14:08;;;;;;;8.50;7.60;;;25.40;65.70;;;;;;5047850;28;20549;-86
2022/07/25 01:16:35;;;;;;;7.37;6.77;;;25.40;65.40;;;;;;5042111;28;20488;-84
2022/07/25 01:19:02;;;;;;;7.50;6.90;;;25.30;65.30;;;;;;5043055;28;20444;-85
2022/07/25 01:21:29;;;;;;;7.80;7.10;;;25.30;65.30;;;;;;5038763;28;20465;-87
2022/07/25 01:23:55;;;;;;;7.50;6.80;;;25.40;65.40;;;;;;5056501;28;20452;-85
2022/07/25 01:26:22;;;;;;;7.77;7.07;;;25.50;64.80;;;;;;5051001;28;20441;-84
2022/07/25 01:28:49;;;;;;;7.63;6.93;;;25.40;64.80;;;;;;5025693;28;20450;-85
2022/07/25 01:31:16;;;;;;;8.00;7.30;;;25.40;64.80;;;;;;5044640;28;20491;-86
2022/07/25 01:33:43;;;;;;;8.00;6.30;;;25.20;65.30;;;;;;5038301;28;20473;-84
2022/07/25 01:36:11;;;;;;;8.40;7.60;;;25.20;65.10;;;;;;5019266;28;20474;-85
2022/07/25 01:38:37;;;;;;;7.67;6.97;;;25.20;65.40;;;;;;5019576;28;20526;-84
2022/07/25 01:41:04;;;;;;;10.50;7.50;;;25.20;65.50;;;;;;5022959;28;20469;-85
2022/07/25 01:43:32;;;;;;;7.97;7.27;;;25.30;65.90;;;;;;5041120;28;20511;-85
2022/07/25 01:45:59;;;;;;;7.93;7.00;;;25.40;66.40;;;;;;5033796;28;20461;-85
2022/07/25 01:48:25;;;;;;;7.87;7.10;;;25.40;66.50;;;;;;5051172;28;20460;-85
2022/07/25 01:50:52;;;;;;;8.43;7.63;;;25.30;66.40;;;;;;5035814;28;20461;-83
2022/07/25 01:53:19;;;;;;;7.30;6.70;;;25.20;67.90;;;;;;5031616;28;20476;-85
2022/07/25 01:55:46;;;;;;;7.87;7.07;;;25.20;67.60;;;;;;5023566;28;20450;-86
2022/07/25 01:58:13;;;;;;;8.13;7.37;;;25.20;68.00;;;;;;5036705;28;20449;-86
2022/07/25 02:00:40;;;;;;;7.30;6.70;;;25.50;67.40;;;;;;5032029;28;20462;-86
2022/07/25 02:03:29;;;;;;;9.60;7.97;;;25.40;67.40;;;;;;5023494;28;20918;-88
2022/07/25 02:05:56;;;;;;;8.20;7.50;;;25.40;66.80;;;;;;5032129;28;20822;-84
2022/07/25 02:08:23;;;;;;;7.47;6.87;;;25.40;67.20;;;;;;5045315;28;20456;-85
2022/07/25 02:10:50;;;;;;;8.80;8.03;;;25.20;67.40;;;;;;5050254;28;20472;-85
2022/07/25 02:13:17;;;;;;;7.50;6.80;;;25.10;67.60;;;;;;5048026;28;20480;-86
2022/07/25 02:15:44;;;;;;;9.13;8.33;;;24.90;68.00;;;;;;5019199;28;20441;-84
2022/07/25 02:18:11;;;;;;;7.80;7.10;;;24.90;68.00;;;;;;5033580;28;20452;-84
2022/07/25 02:20:37;;;;;;;8.47;7.70;;;24.90;68.30;;;;;;5053238;28;20536;-85
2022/07/25 02:23:04;;;;;;;8.10;7.40;;;25.00;68.00;;;;;;5058566;28;20501;-83
2022/07/25 02:25:32;;;;;;;9.00;7.13;;;24.90;68.10;;;;;;5051903;28;20452;-84
2022/07/25 02:27:59;;;;;;;8.70;8.00;;;24.90;68.20;;;;;;5066310;28;20444;-85
2022/07/25 02:30:26;;;;;;;7.47;6.83;;;24.80;68.40;;;;;;5049821;28;20839;-86
2022/07/25 02:32:53;;;;;;;7.53;7.03;;;24.80;69.10;;;;;;5035808;28;20481;-85
2022/07/25 02:35:20;;;;;;;7.57;6.97;;;24.90;68.90;;;;;;5028286;28;20450;-85
2022/07/25 02:37:47;;;;;;;8.10;7.40;;;25.00;69.50;;;;;;5017329;28;20479;-85
2022/07/25 02:40:14;;;;;;;8.03;7.17;;;25.00;69.40;;;;;;5051743;28;20461;-84
2022/07/25 02:42:41;;;;;;;7.63;6.93;;;25.00;69.60;;;;;;5032492;28;20450;-85
2022/07/25 02:45:08;;;;;;;8.20;7.40;;;24.80;69.90;;;;;;5051618;28;20461;-84
2022/07/25 02:47:35;;;;;;;7.80;7.03;;;24.80;69.60;;;;;;5035560;28;20445;-85
2022/07/25 02:50:03;;;;;;;7.97;7.30;;;24.60;70.20;;;;;;5042564;28;20464;-86
2022/07/25 02:52:30;;;;;;;8.20;7.50;;;24.70;70.30;;;;;;5042448;28;20452;-85
2022/07/25 02:54:57;;;;;;;8.23;7.50;;;24.70;70.40;;;;;;5051733;28;20855;-86
2022/07/25 02:57:24;;;;;;;7.53;6.83;;;24.80;71.20;;;;;;5028705;28;20528;-85
2022/07/25 02:59:50;;;;;;;8.00;7.40;;;24.60;71.20;;;;;;5050424;28;20477;-86
2022/07/25 03:02:17;;;;;;;7.97;7.27;;;24.50;71.70;;;;;;5043457;28;20457;-84
2022/07/25 03:04:44;;;;;;;7.70;6.80;;;24.50;72.00;;;;;;5061541;28;20449;-85
2022/07/25 03:07:10;;;;;;;8.60;7.90;;;24.50;72.20;;;;;;5027780;28;20453;-85
2022/07/25 03:09:37;;;;;;;7.90;7.10;;;24.40;72.70;;;;;;5043859;28;20482;-85
2022/07/25 03:12:04;;;;;;;7.90;7.30;;;24.60;72.30;;;;;;5052609;28;20445;-86
2022/07/25 03:14:31;;;;;;;8.30;7.57;;;24.50;72.00;;;;;;5061221;28;20484;-83
2022/07/25 03:16:58;;;;;;;8.43;7.73;;;24.40;72.50;;;;;;5020355;28;20433;-84
2022/07/25 03:19:26;;;;;;;7.80;7.10;;;24.40;72.70;;;;;;5043190;28;20443;-86
2022/07/25 03:21:53;;;;;;;8.37;7.53;;;24.30;73.00;;;;;;5045856;28;20445;-86
2022/07/25 03:24:20;;;;;;;8.87;8.07;;;24.30;73.90;;;;;;5027874;28;20450;-87
2022/07/25 03:26:47;;;;;;;8.10;7.30;;;24.20;73.80;;;;;;5040488;28;20447;-87
2022/07/25 03:29:13;;;;;;;8.13;7.33;;;24.20;74.00;;;;;;5042568;28;20448;-85
2022/07/25 03:31:40;;;;;;;7.60;7.00;;;24.10;74.10;;;;;;5057121;28;20455;-86
2022/07/25 03:34:07;;;;;;;9.17;8.27;;;24.10;74.70;;;;;;5031337;28;20482;-85
2022/07/25 03:36:35;;;;;;;8.17;7.47;;;24.00;75.40;;;;;;5052146;28;20476;-84
2022/07/25 03:39:01;;;;;;;8.50;7.77;;;24.00;75.80;;;;;;5056681;28;20429;-86
2022/07/25 03:41:31;;;;;;;9.17;7.37;;;24.00;76.20;;;;;;5043069;28;20473;-86
2022/07/25 03:44:05;;;;;;;7.87;7.27;;;24.00;75.60;;;;;;5018549;28;20529;-85
2022/07/25 03:46:56;;;;;;;8.40;7.60;;;24.10;75.20;;;;;;5019289;28;20558;-82
2022/07/25 03:49:39;;;;;;;10.33;7.90;;;24.00;74.70;;;;;;5031468;28;20433;-84
2022/07/25 03:52:05;;;;;;;9.30;8.40;;;24.10;74.40;;;;;;5032035;28;20449;-84
2022/07/25 03:54:33;;;;;;;7.80;7.10;;;24.00;74.90;;;;;;5057969;28;20472;-84
2022/07/25 03:57:00;;;;;;;8.00;7.07;;;23.90;74.90;;;;;;5044202;28;20813;-84
2022/07/25 03:59:27;;;;;;;8.23;7.23;;;23.80;75.50;;;;;;5042572;28;20444;-84
2022/07/25 04:01:54;;;;;;;8.50;7.70;;;23.80;75.60;;;;;;5033576;28;20471;-83
2022/07/25 04:04:20;;;;;;;7.67;7.07;;;23.70;75.90;;;;;;5049495;28;20448;-85
2022/07/25 04:06:47;;;;;;;8.47;7.77;;;23.70;76.40;;;;;;5031377;28;20452;-87
2022/07/25 04:09:35;;;;;;;8.00;7.30;;;23.70;77.00;;;;;;5020389;28;20541;-84
2022/07/25 04:12:04;;;;;;;10.30;8.73;;;23.60;77.20;;;;;;5043597;28;20441;-85
2022/07/25 04:14:31;;;;;;;8.00;7.20;;;23.60;77.70;;;;;;5055684;28;20480;-85
2022/07/25 04:17:10;;;;;;;8.17;7.47;;;23.50;77.80;;;;;;5035771;28;20930;-84
2022/07/25 04:19:48;;;;;;;8.90;8.10;;;23.60;78.20;;;;;;5034054;28;20480;-85
2022/07/25 04:22:15;;;;;;;8.10;7.43;;;23.70;77.90;;;;;;5062591;28;21009;-84
2022/07/25 04:24:42;;;;;;;9.10;8.20;;;23.70;78.30;;;;;;5044622;28;20440;-85
2022/07/25 04:27:08;;;;;;;7.70;7.00;;;23.70;79.10;;;;;;5054954;28;20442;-87
2022/07/25 04:29:35;;;;;;;9.27;8.33;;;23.90;78.70;;;;;;5015338;28;20536;-85
2022/07/25 04:32:18;;;;;;;9.07;8.20;;;23.80;79.00;;;;;;5049914;28;20435;-83
2022/07/25 04:34:50;;;;;;;8.40;7.70;;;23.70;79.20;;;;;;5041771;28;21333;-84
2022/07/25 04:37:16;;;;;;;7.87;7.20;;;23.80;79.00;;;;;;5020975;28;20440;-85
2022/07/25 04:39:44;;;;;;;8.33;7.53;;;23.80;78.70;;;;;;5026308;28;20520;-85
2022/07/25 04:42:11;;;;;;;7.30;6.70;;;23.80;78.50;;;;;;5027752;28;20480;-85
2022/07/25 04:44:38;;;;;;;7.87;7.23;;;23.90;78.10;;;;;;5050875;28;20468;-85
2022/07/25 04:47:06;;;;;;;7.70;7.00;;;24.10;77.00;;;;;;5029851;28;21002;-84
2022/07/25 04:49:32;;;;;;;7.93;7.23;;;23.90;76.90;;;;;;5031833;28;20497;-84
2022/07/25 04:51:59;;;;;;;8.33;7.53;;;23.90;77.30;;;;;;5051507;28;20464;-85
2022/07/25 04:54:26;;;;;;;7.40;6.80;;;23.90;77.50;;;;;;5034881;28;20933;-85
2022/07/25 04:56:53;;;;;;;8.37;7.63;;;23.80;77.50;;;;;;5045905;28;20459;-83
2022/07/25 04:59:20;;;;;;;7.47;6.87;;;24.00;77.50;;;;;;5031936;28;20473;-85
2022/07/25 05:01:48;;;;;;;7.20;6.60;;;24.30;76.30;;;;;;5015656;28;20454;-85
2022/07/25 05:04:18;;;;;;;7.50;6.80;;;24.50;75.00;;;;;;5022758;28;20457;-85
2022/07/25 05:06:45;;;;;;;7.07;6.57;;;24.50;74.30;;;;;;5044328;28;20445;-86
2022/07/25 05:09:12;;;;;;;8.07;7.37;;;24.50;74.20;;;;;;5052122;28;20448;-86
2022/07/25 05:11:57;;;;;;;8.47;7.60;;;24.30;74.10;;;;;;5026128;28;20475;-85
2022/07/25 05:14:24;;;;;;;8.17;7.30;;;24.40;74.30;;;;;;5039049;28;20491;-86
2022/07/25 05:16:53;;;;;;;8.20;7.40;;;24.70;74.00;;;;;;5044211;28;20452;-85
2022/07/25 05:19:57;;;;;;;9.60;7.37;;;24.70;74.10;;;;;;5044340;28;20516;-83
2022/07/25 05:22:24;;;;;;;8.00;7.27;;;24.70;73.30;;;;;;5049288;28;20450;-87
2022/07/25 05:24:56;;;;;;;7.60;7.00;;;24.50;74.00;;;;;;5020442;28;20462;-86
2022/07/25 05:27:44;;;;;;;8.10;7.40;;;24.70;74.00;;;;;;5035484;28;20464;-85
2022/07/25 05:30:13;;;;;;;9.07;7.20;;;24.90;72.60;;;;;;5038484;28;20886;-86
2022/07/25 05:32:40;;;;;;;8.13;7.03;;;24.80;72.90;;;;;;5045100;28;20552;-82
2022/07/25 05:35:08;;;;;;;7.40;6.80;;;24.90;72.80;;;;;;5046106;28;20575;-86
2022/07/25 05:37:36;;;;;;;7.50;6.80;;;24.80;72.90;;;;;;5048979;28;20528;-86
2022/07/25 05:40:05;;;;;;;8.40;7.00;;;24.80;73.70;;;;;;5059852;28;20475;-86
2022/07/25 05:42:32;;;;;;;8.67;7.00;;;24.90;73.80;;;;;;5032083;28;20447;-87
2022/07/25 05:45:00;;;;;;;8.90;8.00;;;24.90;73.50;;;;;;5044085;28;21055;-86
2022/07/25 05:47:29;;;;;;;8.30;7.00;;;24.90;73.60;;;;;;5040132;28;20444;-85
2022/07/25 05:49:56;;;;;;;8.20;7.33;;;25.00;73.80;;;;;;5037526;28;20470;-87
2022/07/25 05:52:23;;;;;;;7.67;6.97;;;25.10;73.70;;;;;;5039159;28;20703;-84
2022/07/25 05:54:50;;;;;;;7.73;6.93;;;25.00;73.70;;;;;;5025327;28;20504;-85
2022/07/25 05:57:17;;;;;;;7.30;6.70;;;25.10;73.50;;;;;;5032159;28;20536;-85
2022/07/25 05:59:43;;;;;;;7.87;7.10;;;25.20;73.40;;;;;;5050364;28;20479;-85
2022/07/25 06:02:10;;;;;;;7.20;6.53;;;25.20;73.00;;;;;;5056014;28;20447;-86
2022/07/25 06:04:37;;;;;;;7.57;6.97;;;25.30;73.20;;;;;;5027312;28;20450;-85
2022/07/25 06:07:13;;;;;;;7.90;7.30;;;25.30;73.20;;;;;;5044625;28;20463;-85
2022/07/25 06:09:40;;;;;;;7.93;7.23;;;25.40;72.70;;;;;;5062239;28;20728;-85
2022/07/25 06:12:07;;;;;;;7.00;6.40;;;25.30;73.10;;;;;;5039206;28;20452;-87
2022/07/25 06:14:34;;;;;;;7.73;7.13;;;25.30;73.30;;;;;;5037902;28;20484;-85
2022/07/25 06:17:03;;;;;;;7.27;6.57;;;25.30;73.70;;;;;;5043088;28;20539;-85
2022/07/25 06:19:30;;;;;;;7.80;7.20;;;25.30;73.30;;;;;;5034354;28;20565;-86
2022/07/25 06:22:04;;;;;;;9.40;8.50;;;25.40;72.70;;;;;;5030088;28;20509;-84
2022/07/25 06:24:31;;;;;;;7.20;6.60;;;25.70;72.70;;;;;;5066699;28;20494;-85
2022/07/25 06:27:40;;;;;;;7.30;6.70;;;25.70;71.80;;;;;;5066558;28;20516;-85
2022/07/25 06:30:13;;;;;;;8.70;6.93;;;25.80;71.90;;;;;;5052417;28;20509;-87
2022/07/25 06:32:47;;;;;;;7.50;6.80;;;25.80;72.10;;;;;;5058234;28;20465;-88
2022/07/25 06:35:14;;;;;;;7.70;6.43;;;25.80;72.10;;;;;;5043122;28;20462;-84
2022/07/25 06:37:41;;;;;;;7.10;6.50;;;25.80;72.20;;;;;;5024454;28;20450;-86
2022/07/25 06:40:09;;;;;;;7.90;6.73;;;25.90;71.70;;;;;;5037024;28;20468;-87
2022/07/25 06:42:41;;;;;;;7.30;6.60;;;26.00;71.30;;;;;;5036791;28;20453;-85
2022/07/25 06:45:10;;;;;;;8.43;7.70;;;26.10;71.20;;;;;;5042624;28;20450;-85
2022/07/25 06:47:41;;;;;;;7.73;6.93;;;26.10;71.20;;;;;;5016061;28;20560;-84
2022/07/25 06:50:32;;;;;;;;;;;;;;;;;;;;;
2022/07/25 06:53:30;;;;;;;7.57;6.40;;;26.40;70.70;;;;;;5061907;28;20480;-84
2022/07/25 06:56:16;;;;;;;7.50;6.80;;;26.50;70.40;;;;;;5029833;28;20509;-88
2022/07/25 06:58:46;;;;;;;7.50;6.87;;;26.80;69.90;;;;;;5038343;28;20456;-86
2022/07/25 07:01:13;;;;;;;7.77;6.93;;;26.90;69.50;;;;;;5066799;28;20675;-86
2022/07/25 07:03:59;;;;;;;8.03;7.33;;;27.00;69.70;;;;;;5028477;28;20414;-85
2022/07/25 07:06:35;;;;;;;7.10;6.50;;;27.00;69.50;;;;;;5039719;28;20470;-86
2022/07/25 07:09:23;;;;;;;7.40;6.70;;;27.00;70.20;;;;;;5052398;28;20442;-86
2022/07/25 07:11:53;;;;;;;7.83;6.93;;;27.20;70.10;;;;;;5041498;28;20434;-86
2022/07/25 07:14:23;;;;;;;6.70;6.20;;;27.40;69.60;;;;;;5048957;28;20500;-85
2022/07/25 07:16:52;;;;;;;7.53;6.93;;;27.60;69.60;;;;;;5055103;28;20451;-86
2022/07/25 07:19:24;;;;;;;9.20;8.30;;;27.80;68.50;;;;;;5033975;28;20544;-84
2022/07/25 07:21:58;;;;;;;6.97;6.27;;;28.00;68.50;;;;;;5063070;28;20519;-86
2022/07/25 07:24:27;;;;;;;8.53;7.83;;;28.10;67.50;;;;;;5027083;28;20466;-84
2022/07/25 07:27:02;;;;;;;7.20;6.67;;;28.20;66.80;;;;;;5039571;28;21255;-83
2022/07/25 07:29:32;;;;;;;7.67;6.97;;;28.30;67.00;;;;;;5040658;28;20937;-84
2022/07/25 07:32:01;;;;;;;7.20;6.50;;;28.60;66.50;;;;;;5044159;28;20430;-85
2022/07/25 07:34:28;;;;;;;7.67;7.07;;;28.70;65.70;;;;;;5046944;28;20904;-85
2022/07/25 07:37:38;;;;;;;8.40;7.60;;;28.80;65.10;;;;;;5033470;28;20432;-84
2022/07/25 07:40:10;;;;;;;7.93;7.23;;;29.00;64.20;;;;;;5032231;28;20453;-85
2022/07/25 07:42:52;;;;;;;8.03;7.23;;;29.00;63.80;;;;;;5045957;28;20494;-84
2022/07/25 07:45:34;;;;;;;8.17;7.37;;;29.00;64.10;;;;;;5055194;28;20515;-85
2022/07/25 07:48:01;;;;;;;8.57;7.17;;;29.30;62.90;;;;;;5056626;28;20479;-86
2022/07/25 07:50:28;;;;;;;7.87;7.27;;;29.40;62.90;;;;;;5043516;28;20468;-87
2022/07/25 07:52:58;;;;;;;7.93;6.70;;;29.50;62.50;;;;;;5059173;28;20472;-86
2022/07/25 07:55:54;;;;;;;7.17;6.47;;;29.60;62.10;;;;;;5074968;28;20495;-86
2022/07/25 07:58:40;;;;;;;7.73;7.03;;;29.70;61.80;;;;;;5051155;28;20440;-85
2022/07/25 08:01:07;;;;;;;8.03;7.27;;;29.90;61.30;;;;;;5038800;28;20442;-85
2022/07/25 08:04:05;;;;;;;7.53;7.00;;;30.10;61.50;;;;;;5031860;28;20446;-84
2022/07/25 08:06:31;;;;;;;7.70;6.90;;;30.30;60.00;;;;;;5025181;28;20920;-84
2022/07/25 08:08:58;;;;;;;6.90;6.30;;;30.30;59.80;;;;;;5054317;28;20437;-86
2022/07/25 08:11:25;;;;;;;9.23;6.90;;;29.90;60.50;;;;;;5055250;28;20480;-86
2022/07/25 08:13:52;;;;;;;7.20;6.53;;;30.10;59.90;;;;;;5034920;28;20444;-85
2022/07/25 08:16:28;;;;;;;8.20;5.93;;;30.40;58.90;;;;;;5047892;28;20853;-85
2022/07/25 08:18:55;;;;;;;7.07;6.37;;;30.30;57.50;;;;;;5049519;28;20482;-85
2022/07/25 08:21:29;;;;;;;6.60;6.00;;;29.80;58.50;;;;;;5052819;28;20480;-85
2022/07/25 08:23:56;;;;;;;7.10;6.50;;;30.20;57.90;;;;;;5049887;28;20458;-84
2022/07/25 08:26:22;;;;;;;6.47;5.90;;;30.30;56.80;;;;;;5064783;28;20453;-84
2022/07/25 08:28:50;;;;;;;7.20;6.60;;;30.50;56.30;;;;;;5064192;28;20448;-85
2022/07/25 08:31:43;;;;;;;6.40;5.80;;;30.50;56.20;;;;;;5018153;28;20474;-83
2022/07/25 08:34:10;;;;;;;7.30;6.70;;;30.00;56.80;;;;;;5064701;28;20487;-84
2022/07/25 08:36:36;;;;;;;8.87;7.87;;;30.20;56.70;;;;;;5063572;28;21077;-84
2022/07/25 08:39:06;;;;;;;8.00;7.40;;;29.90;56.30;;;;;;5058623;28;20517;-84
2022/07/25 08:41:42;;;;;;;7.00;6.40;;;29.60;57.70;;;;;;5117568;22;20495;-84
2022/07/25 08:44:17;;;;;;;7.33;6.73;;;29.30;57.70;;;;;;5080791;28;20498;-85
2022/07/25 08:46:51;;;;;;;7.30;6.70;;;29.20;57.80;;;;;;5083551;28;20835;-86
2022/07/25 08:49:18;;;;;;;7.10;6.60;;;29.10;57.70;;;;;;5067123;28;20914;-87
2022/07/25 08:51:45;;;;;;;7.23;6.63;;;29.20;57.70;;;;;;5093657;28;20443;-85
2022/07/25 08:54:13;;;;;;;8.10;7.40;;;29.00;57.60;;;;;;5103051;28;20443;-84
2022/07/25 08:56:40;;;;;;;8.00;7.20;;;28.90;58.10;;;;;;5096043;28;20497;-85
2022/07/25 08:59:10;;;;;;;11.50;7.67;;;28.90;58.30;;;;;;5082249;28;20451;-84
2022/07/25 09:01:39;;;;;;;7.07;6.37;;;28.90;58.40;;;;;;5082224;28;20469;-84
2022/07/25 09:04:08;;;;;;;9.73;7.50;;;28.90;58.30;;;;;;5067103;28;20452;-86
2022/07/25 09:06:36;;;;;;;7.20;6.50;;;29.00;58.00;;;;;;5065306;28;20456;-86
2022/07/25 09:09:04;;;;;;;7.43;6.80;;;29.10;57.60;;;;;;5088527;28;20447;-85
2022/07/25 09:11:36;;;;;;;7.10;6.50;;;29.20;57.30;;;;;;5083735;28;20467;-86
2022/07/25 09:14:06;;;;;;;7.40;6.50;;;29.70;57.00;;;;;;5094195;28;20447;-86
2022/07/25 09:16:36;;;;;;;7.07;6.37;;;30.90;55.40;;;;;;5083494;28;20474;-84
2022/07/25 09:19:09;;;;;;;7.33;6.50;;;32.20;52.50;;;;;;5097732;28;20442;-86
2022/07/25 09:21:38;;;;;;;6.60;6.10;;;32.30;51.50;;;;;;5091147;28;20493;-84
2022/07/25 09:24:11;;;;;;;6.63;6.13;;;31.70;52.00;;;;;;5089818;28;20496;-84
2022/07/25 09:26:49;;;;;;;7.70;7.00;;;31.40;53.00;;;;;;5080724;28;20498;-85
2022/07/25 09:29:22;;;;;;;9.50;6.60;;;31.80;51.80;;;;;;5079382;28;20462;-86
2022/07/25 09:31:51;;;;;;;6.03;5.43;;;32.70;50.30;;;;;;5092206;28;20459;-85
2022/07/25 09:34:37;;;;;;;6.67;6.07;;;33.60;48.70;;;;;;5083324;28;20443;-88
2022/07/25 09:37:06;;;;;;;6.93;6.17;;;34.10;47.30;;;;;;5076673;28;20453;-84
2022/07/25 09:39:39;;;;;;;6.73;6.13;;;34.30;47.50;;;;;;5077455;28;20502;-87
2022/07/25 09:42:26;;;;;;;7.27;6.77;;;34.30;46.50;;;;;;5082505;28;20937;-85
2022/07/25 09:45:10;;;;;;;7.03;6.50;;;33.60;47.20;;;;;;5088573;28;20457;-84
2022/07/25 09:47:52;;;;;;;7.17;6.40;;;33.10;48.00;;;;;;5090259;28;20438;-84
2022/07/25 09:50:22;;;;;;;6.97;6.37;;;32.60;48.80;;;;;;5079125;28;20569;-88
2022/07/25 09:52:52;;;;;;;6.80;6.30;;;32.20;49.90;;;;;;5065101;28;20501;-85
2022/07/25 09:55:20;;;;;;;6.40;5.90;;;31.70;51.20;;;;;;5073364;28;20462;-86
2022/07/25 09:57:48;;;;;;;6.90;6.33;;;31.10;52.20;;;;;;5072497;28;20514;-86
2022/07/25 10:00:22;;;;;;;6.63;6.03;;;30.80;53.20;;;;;;5066960;28;20472;-85
2022/07/25 10:03:26;;;;;;;8.37;7.43;;;30.50;53.80;;;;;;5079748;28;20459;-85
2022/07/25 10:06:08;;;;;;;7.77;7.07;;;30.20;54.60;;;;;;5065987;28;20959;-86
2022/07/25 10:08:39;;;;;;;8.93;7.10;;;29.90;55.20;;;;;;5082821;28;20446;-85
2022/07/25 10:11:21;;;;;;;6.90;6.20;;;29.70;55.80;;;;;;5088183;28;20485;-84
2022/07/25 10:13:49;;;;;;;7.73;7.03;;;29.50;57.20;;;;;;5096486;28;20460;-87
2022/07/25 10:16:22;;;;;;;8.10;6.47;;;29.40;57.90;;;;;;5098767;28;20466;-85
2022/07/25 10:18:53;;;;;;;7.20;6.60;;;29.50;58.30;;;;;;5104914;28;20435;-87
2022/07/25 10:21:22;;;;;;;7.60;6.90;;;29.20;59.00;;;;;;5102300;28;20491;-86
2022/07/25 10:24:00;;;;;;;7.07;6.50;;;29.10;60.40;;;;;;5074026;28;20446;-85
2022/07/25 10:26:27;;;;;;;8.07;7.03;;;28.90;63.00;;;;;;5092827;28;20447;-85
2022/07/25 10:29:00;;;;;;;8.27;7.47;;;28.60;63.90;;;;;;5079810;28;20447;-85
2022/07/25 10:31:50;;;;;;;10.40;7.00;;;28.40;66.30;;;;;;5079692;28;20521;-86
2022/07/25 10:34:30;;;;;;;8.27;7.50;;;28.40;67.80;;;;;;5082517;28;20477;-85
2022/07/25 10:37:22;;;;;;;9.87;7.47;;;28.40;67.80;;;;;;5079944;28;20432;-85
2022/07/25 10:39:55;;;;;;;7.50;6.80;;;28.40;70.50;;;;;;5095937;28;20559;-86
2022/07/25 10:42:25;;;;;;;8.30;7.57;;;28.50;68.70;;;;;;5079601;28;20703;-83
2022/07/25 10:45:08;;;;;;;9.63;6.97;;;28.60;67.50;;;;;;5071023;28;20494;-86
2022/07/25 10:47:52;;;;;;;7.80;7.10;;;28.70;66.30;;;;;;5090218;28;20550;-85
2022/07/25 10:50:23;;;;;;;7.67;6.93;;;28.80;65.50;;;;;;5099777;28;20552;-85
2022/07/25 10:53:13;;;;;;;7.50;6.67;;;28.60;64.90;;;;;;5084473;28;20431;-84
2022/07/25 10:55:54;;;;;;;8.30;6.87;;;28.60;64.70;;;;;;5094341;28;20537;-86
2022/07/25 10:58:46;;;;;;;6.80;6.10;;;28.50;63.90;;;;;;5087874;28;20473;-85
2022/07/25 11:01:30;;;;;;;6.47;5.97;;;28.50;63.10;;;;;;5083959;28;20471;-85
2022/07/25 11:04:03;;;;;;;9.30;8.40;;;28.50;61.80;;;;;;5065689;28;20462;-85
2022/07/25 11:06:35;;;;;;;7.00;6.27;;;28.50;61.90;;;;;;5080195;28;20448;-85
2022/07/25 11:09:22;;;;;;;7.40;6.37;;;28.60;61.50;;;;;;5077324;28;20558;-85
2022/07/25 11:11:55;;;;;;;8.93;6.50;;;28.80;61.60;;;;;;5102548;28;20457;-86
2022/07/25 11:14:32;;;;;;;6.30;5.70;;;29.40;60.10;;;;;;5101009;28;20435;-84
2022/07/25 11:17:13;;;;;;;8.93;7.57;;;29.90;59.30;;;;;;5076962;28;20466;-86
2022/07/25 11:19:42;;;;;;;6.33;5.77;;;30.30;57.80;;;;;;5073054;28;20510;-86
2022/07/25 11:22:09;;;;;;;6.70;6.10;;;30.10;57.10;;;;;;5082462;28;20467;-86
2022/07/25 11:24:46;;;;;;;6.43;5.83;;;30.10;57.40;;;;;;5101228;28;20458;-85
2022/07/25 11:27:26;;;;;;;11.43;7.00;;;30.00;57.20;;;;;;5080763;28;20532;-85
2022/07/25 11:30:10;;;;;;;6.77;6.13;;;30.00;57.70;;;;;;5083122;28;20900;-85
2022/07/25 11:32:42;;;;;;;7.13;6.40;;;30.20;56.70;;;;;;5073797;28;20507;-86
2022/07/25 11:35:12;;;;;;;6.83;6.20;;;29.80;57.00;;;;;;5071775;28;20475;-86
2022/07/25 11:37:40;;;;;;;7.77;6.60;;;29.40;57.10;;;;;;5106420;28;20445;-85
2022/07/25 11:40:08;;;;;;;6.03;5.53;;;29.30;57.50;;;;;;5080716;28;20463;-85
2022/07/25 11:42:49;;;;;;;10.00;6.10;;;29.30;57.60;;;;;;5084314;28;20414;-87
2022/07/25 11:45:20;;;;;;;8.93;5.90;;;29.30;57.60;;;;;;5119268;28;20486;-87
2022/07/25 11:48:00;;;;;;;5.90;5.40;;;29.20;57.20;;;;;;5100790;28;20429;-89
2022/07/25 11:50:31;;;;;;;7.70;5.37;;;29.20;57.30;;;;;;5091436;28;20463;-86
2022/07/25 11:53:03;;;;;;;6.23;5.70;;;29.20;57.10;;;;;;5101373;28;20469;-88
2022/07/25 11:55:36;;;;;;;6.60;5.93;;;29.30;57.20;;;;;;5105129;28;20546;-89
2022/07/25 11:58:04;;;;;;;7.00;5.40;;;29.50;56.90;;;;;;5094526;28;20446;-87
2022/07/25 12:00:37;;;;;;;8.03;5.93;;;29.70;55.90;;;;;;5104728;28;20465;-85
2022/07/25 12:03:09;;;;;;;5.53;5.00;;;29.90;55.00;;;;;;5094388;28;20445;-84
2022/07/25 12:05:41;;;;;;;6.27;5.67;;;29.90;54.50;;;;;;5090132;28;20530;-83
2022/07/25 12:08:13;;;;;;;5.47;5.00;;;30.10;54.50;;;;;;5082931;28;20462;-85
2022/07/25 12:10:42;;;;;;;5.47;4.70;;;29.90;54.00;;;;;;5070356;28;20482;-85
2022/07/25 12:13:20;;;;;;;5.70;5.20;;;29.90;54.10;;;;;;5088820;28;20999;-86
2022/07/25 12:15:46;;;;;;;8.10;5.53;;;29.70;53.60;;;;;;5082141;28;20466;-85
2022/07/25 12:18:13;;;;;;;6.00;5.50;;;29.60;54.10;;;;;;5090669;28;20448;-83
2022/07/25 12:20:42;;;;;;;6.00;4.47;;;29.60;53.90;;;;;;5087212;28;20480;-86
2022/07/25 12:23:12;;;;;;;4.33;3.93;;;29.70;53.60;;;;;;5106544;28;20485;-86
2022/07/25 12:25:43;;;;;;;6.53;5.80;;;29.70;53.40;;;;;;5090203;28;20453;-85
2022/07/25 12:28:28;;;;;;;6.20;5.37;;;29.50;53.60;;;;;;5095569;28;20462;-84
2022/07/25 12:30:55;;;;;;;7.40;5.57;;;29.40;53.90;;;;;;5093730;28;20470;-87
2022/07/25 12:36:26;;;;;;;5.90;5.23;;;29.30;54.50;;;;;;5092864;28;20508;-85
2022/07/25 12:38:53;;;;;;;5.00;4.20;;;29.30;54.90;;;;;;5098907;28;20479;-85
2022/07/25 12:41:22;;;;;;;5.30;4.90;;;29.30;54.90;;;;;;5099357;28;20459;-88
2022/07/25 12:43:56;;;;;;;5.40;4.90;;;29.30;55.10;;;;;;5086929;28;20450;-86
2022/07/25 12:46:23;;;;;;;5.40;4.90;;;29.40;55.20;;;;;;5087814;28;20428;-85
2022/07/25 12:48:51;;;;;;;7.03;4.80;;;29.40;55.30;;;;;;5080785;28;20439;-88
2022/07/25 12:51:24;;;;;;;11.33;5.60;;;29.40;55.80;;;;;;5083707;28;20471;-86
2022/07/25 12:53:55;;;;;;;6.20;4.10;;;29.30;56.20;;;;;;5082940;28;20435;-87
2022/07/25 12:56:26;;;;;;;4.93;4.10;;;29.20;56.40;;;;;;5070296;28;20995;-86
2022/07/25 12:58:53;;;;;;;8.37;5.53;;;29.30;56.80;;;;;;5085994;28;20495;-85
2022/07/25 13:01:21;;;;;;;6.97;4.50;;;29.30;56.90;;;;;;5090510;28;20466;-86
2022/07/25 13:03:48;;;;;;;4.60;4.13;;;29.30;57.20;;;;;;5088821;28;20462;-86
2022/07/25 13:06:17;;;;;;;6.10;3.13;;;29.40;57.40;;;;;;5077775;28;20450;-87
2022/07/25 13:08:46;;;;;;;3.83;3.43;;;29.40;57.30;;;;;;5057453;28;20454;-87
2022/07/25 13:11:13;;;;;;;4.17;3.87;;;29.40;57.30;;;;;;5081868;28;20510;-87